sensor_id;sensor_type;location;lat;lon;timestamp;temperature;humidity
12622;DHT22;6376;48.182;-1.644;2024-03-23T00:55:34;13.00;92.00
12622;DHT22;6376;48.182;-1.644;2024-03-23T00:58:00;13.00;91.90
12622;DHT22;6376;48.182;-1.644;2024-03-23T01:00:25;13.00;91.70
12622;DHT22;6376;48.182;-1.644;2024-03-23T01:02:51;13.00;91.80
12622;DHT22;6376;48.182;-1.644;2024-03-23T01:05:17;13.00;91.60
12622;DHT22;6376;48.182;-1.644;2024-03-23T01:07:42;13.00;91.90
12622;DHT22;6376;48.182;-1.644;2024-03-23T01:10:08;12.90;91.70
12622;DHT22;6376;48.182;-1.644;2024-03-23T01:12:34;13.00;91.80
12622;DHT22;6376;48.182;-1.644;2024-03-23T01:14:59;12.90;91.60
12622;DHT22;6376;48.182;-1.644;2024-03-23T01:17:25;12.90;91.60
12622;DHT22;6376;48.182;-1.644;2024-03-23T01:19:51;12.90;91.70
12622;DHT22;6376;48.182;-1.644;2024-03-23T01:22:16;12.90;91.70
12622;DHT22;6376;48.182;-1.644;2024-03-23T01:24:42;12.90;91.70
12622;DHT22;6376;48.182;-1.644;2024-03-23T01:27:08;12.90;91.70
12622;DHT22;6376;48.182;-1.644;2024-03-23T01:29:34;12.90;91.70
12622;DHT22;6376;48.182;-1.644;2024-03-23T01:32:00;12.90;91.50
12622;DHT22;6376;48.182;-1.644;2024-03-23T01:34:25;12.90;91.40
12622;DHT22;6376;48.182;-1.644;2024-03-23T01:36:52;12.90;91.50
12622;DHT22;6376;48.182;-1.644;2024-03-23T01:39:17;12.90;91.50
12622;DHT22;6376;48.182;-1.644;2024-03-23T01:41:43;12.90;91.50
12622;DHT22;6376;48.182;-1.644;2024-03-23T01:44:09;12.90;91.40
12622;DHT22;6376;48.182;-1.644;2024-03-23T01:46:38;12.90;91.40
12622;DHT22;6376;48.182;-1.644;2024-03-23T01:49:07;12.90;91.40
12622;DHT22;6376;48.182;-1.644;2024-03-23T01:51:33;12.90;91.40
12622;DHT22;6376;48.182;-1.644;2024-03-23T01:54:00;12.90;91.40
12622;DHT22;6376;48.182;-1.644;2024-03-23T01:56:29;12.90;91.50
12622;DHT22;6376;48.182;-1.644;2024-03-23T01:58:55;12.80;91.30
12622;DHT22;6376;48.182;-1.644;2024-03-23T02:01:21;12.90;91.60
12622;DHT22;6376;48.182;-1.644;2024-03-23T02:03:46;12.80;91.70
12622;DHT22;6376;48.182;-1.644;2024-03-23T02:06:12;12.80;91.40
12622;DHT22;6376;48.182;-1.644;2024-03-23T02:08:38;12.80;91.50
12622;DHT22;6376;48.182;-1.644;2024-03-23T02:11:04;12.80;91.50
12622;DHT22;6376;48.182;-1.644;2024-03-23T02:13:30;12.80;91.40
12622;DHT22;6376;48.182;-1.644;2024-03-23T02:15:57;12.80;91.30
12622;DHT22;6376;48.182;-1.644;2024-03-23T02:18:22;12.80;91.20
12622;DHT22;6376;48.182;-1.644;2024-03-23T02:20:48;12.80;91.40
12622;DHT22;6376;48.182;-1.644;2024-03-23T02:23:14;12.80;91.50
12622;DHT22;6376;48.182;-1.644;2024-03-23T02:25:40;12.80;91.60
12622;DHT22;6376;48.182;-1.644;2024-03-23T02:28:06;12.80;91.50
12622;DHT22;6376;48.182;-1.644;2024-03-23T02:30:31;12.80;91.40
12622;DHT22;6376;48.182;-1.644;2024-03-23T02:32:57;12.80;91.50
12622;DHT22;6376;48.182;-1.644;2024-03-23T02:35:22;12.80;91.40
12622;DHT22;6376;48.182;-1.644;2024-03-23T02:37:48;12.80;91.50
12622;DHT22;6376;48.182;-1.644;2024-03-23T02:40:18;12.80;91.40
12622;DHT22;6376;48.182;-1.644;2024-03-23T02:42:43;12.70;91.40
12622;DHT22;6376;48.182;-1.644;2024-03-23T02:45:09;12.70;91.30
12622;DHT22;6376;48.182;-1.644;2024-03-23T02:47:35;12.80;91.50
12622;DHT22;6376;48.182;-1.644;2024-03-23T02:50:00;12.70;91.20
12622;DHT22;6376;48.182;-1.644;2024-03-23T02:52:26;12.70;91.10
12622;DHT22;6376;48.182;-1.644;2024-03-23T02:54:52;12.80;91.30
12622;DHT22;6376;48.182;-1.644;2024-03-23T02:57:18;12.80;91.40
12622;DHT22;6376;48.182;-1.644;2024-03-23T02:59:43;12.70;91.30
12622;DHT22;6376;48.182;-1.644;2024-03-23T03:02:09;12.70;91.40
12622;DHT22;6376;48.182;-1.644;2024-03-23T03:04:35;12.70;91.40
12622;DHT22;6376;48.182;-1.644;2024-03-23T03:07:00;12.70;91.40
12622;DHT22;6376;48.182;-1.644;2024-03-23T03:09:26;12.80;91.40
12622;DHT22;6376;48.182;-1.644;2024-03-23T03:11:51;12.80;91.40
12622;DHT22;6376;48.182;-1.644;2024-03-23T03:14:17;12.70;91.40
12622;DHT22;6376;48.182;-1.644;2024-03-23T03:16:43;12.70;91.40
12622;DHT22;6376;48.182;-1.644;2024-03-23T03:19:08;12.70;91.40
12622;DHT22;6376;48.182;-1.644;2024-03-23T03:21:36;12.70;91.40
12622;DHT22;6376;48.182;-1.644;2024-03-23T03:24:01;12.70;91.20
12622;DHT22;6376;48.182;-1.644;2024-03-23T03:26:27;12.70;91.20
12622;DHT22;6376;48.182;-1.644;2024-03-23T03:28:53;12.70;91.20
12622;DHT22;6376;48.182;-1.644;2024-03-23T03:31:18;12.70;91.20
12622;DHT22;6376;48.182;-1.644;2024-03-23T03:33:44;12.70;91.10
12622;DHT22;6376;48.182;-1.644;2024-03-23T03:36:10;12.70;91.20
12622;DHT22;6376;48.182;-1.644;2024-03-23T03:38:36;12.70;91.20
12622;DHT22;6376;48.182;-1.644;2024-03-23T03:41:02;12.70;91.10
12622;DHT22;6376;48.182;-1.644;2024-03-23T03:43:28;12.70;91.20
12622;DHT22;6376;48.182;-1.644;2024-03-23T03:45:55;12.70;91.20
12622;DHT22;6376;48.182;-1.644;2024-03-23T03:48:21;12.70;91.10
12622;DHT22;6376;48.182;-1.644;2024-03-23T03:50:47;12.70;91.10
12622;DHT22;6376;48.182;-1.644;2024-03-23T03:53:12;12.70;91.10
12622;DHT22;6376;48.182;-1.644;2024-03-23T03:55:38;12.70;91.20
12622;DHT22;6376;48.182;-1.644;2024-03-23T03:58:04;12.70;91.20
12622;DHT22;6376;48.182;-1.644;2024-03-23T04:00:32;12.60;91.10
12622;DHT22;6376;48.182;-1.644;2024-03-23T04:02:58;12.60;91.20
12622;DHT22;6376;48.182;-1.644;2024-03-23T04:05:24;12.60;91.20
12622;DHT22;6376;48.182;-1.644;2024-03-23T04:07:49;12.60;91.20
12622;DHT22;6376;48.182;-1.644;2024-03-23T04:10:15;12.60;91.40
12622;DHT22;6376;48.182;-1.644;2024-03-23T04:12:43;12.60;91.20
12622;DHT22;6376;48.182;-1.644;2024-03-23T04:15:09;12.60;91.10
12622;DHT22;6376;48.182;-1.644;2024-03-23T04:17:35;12.60;91.20
12622;DHT22;6376;48.182;-1.644;2024-03-23T04:20:02;12.60;91.20
12622;DHT22;6376;48.182;-1.644;2024-03-23T04:22:29;12.60;91.20
12622;DHT22;6376;48.182;-1.644;2024-03-23T04:24:58;12.60;91.00
12622;DHT22;6376;48.182;-1.644;2024-03-23T04:27:24;12.50;91.00
12622;DHT22;6376;48.182;-1.644;2024-03-23T04:29:50;12.60;91.10
12622;DHT22;6376;48.182;-1.644;2024-03-23T04:32:16;12.50;91.10
12622;DHT22;6376;48.182;-1.644;2024-03-23T04:34:43;12.50;91.00
12622;DHT22;6376;48.182;-1.644;2024-03-23T04:37:10;12.50;91.10
12622;DHT22;6376;48.182;-1.644;2024-03-23T04:39:39;12.50;91.00
12622;DHT22;6376;48.182;-1.644;2024-03-23T04:42:05;12.50;91.00
12622;DHT22;6376;48.182;-1.644;2024-03-23T04:44:31;12.50;91.00
12622;DHT22;6376;48.182;-1.644;2024-03-23T04:46:57;12.50;91.10
12622;DHT22;6376;48.182;-1.644;2024-03-23T04:49:23;12.50;91.00
12622;DHT22;6376;48.182;-1.644;2024-03-23T04:51:48;12.50;91.10
12622;DHT22;6376;48.182;-1.644;2024-03-23T04:54:14;12.50;91.10
12622;DHT22;6376;48.182;-1.644;2024-03-23T04:56:40;12.50;91.00
12622;DHT22;6376;48.182;-1.644;2024-03-23T04:59:05;12.50;91.00
12622;DHT22;6376;48.182;-1.644;2024-03-23T05:01:31;12.50;91.10
12622;DHT22;6376;48.182;-1.644;2024-03-23T05:03:57;12.50;91.00
12622;DHT22;6376;48.182;-1.644;2024-03-23T05:06:24;12.50;90.90
12622;DHT22;6376;48.182;-1.644;2024-03-23T05:08:50;12.50;91.00
12622;DHT22;6376;48.182;-1.644;2024-03-23T05:11:16;12.50;91.00
12622;DHT22;6376;48.182;-1.644;2024-03-23T05:13:42;12.50;90.90
12622;DHT22;6376;48.182;-1.644;2024-03-23T05:16:08;12.50;90.80
12622;DHT22;6376;48.182;-1.644;2024-03-23T05:18:34;12.40;90.90
12622;DHT22;6376;48.182;-1.644;2024-03-23T05:21:00;12.50;90.90
12622;DHT22;6376;48.182;-1.644;2024-03-23T05:23:27;12.50;90.90
12622;DHT22;6376;48.182;-1.644;2024-03-23T05:25:53;12.40;90.80
12622;DHT22;6376;48.182;-1.644;2024-03-23T05:28:20;12.40;90.70
12622;DHT22;6376;48.182;-1.644;2024-03-23T05:30:56;12.40;90.80
12622;DHT22;6376;48.182;-1.644;2024-03-23T05:33:24;12.40;90.60
12622;DHT22;6376;48.182;-1.644;2024-03-23T05:36:00;12.40;90.80
12622;DHT22;6376;48.182;-1.644;2024-03-23T05:38:25;12.40;90.80
12622;DHT22;6376;48.182;-1.644;2024-03-23T05:40:55;12.40;90.70
12622;DHT22;6376;48.182;-1.644;2024-03-23T05:43:22;12.40;90.80
12622;DHT22;6376;48.182;-1.644;2024-03-23T05:45:57;12.40;90.80
12622;DHT22;6376;48.182;-1.644;2024-03-23T05:48:24;12.40;90.70
12622;DHT22;6376;48.182;-1.644;2024-03-23T05:50:50;12.40;90.70
12622;DHT22;6376;48.182;-1.644;2024-03-23T05:53:17;12.40;90.60
12622;DHT22;6376;48.182;-1.644;2024-03-23T05:55:42;12.30;90.70
12622;DHT22;6376;48.182;-1.644;2024-03-23T05:58:08;12.40;90.80
12622;DHT22;6376;48.182;-1.644;2024-03-23T06:00:34;12.40;90.80
12622;DHT22;6376;48.182;-1.644;2024-03-23T06:03:00;12.40;90.60
12622;DHT22;6376;48.182;-1.644;2024-03-23T06:05:26;12.40;90.70
12622;DHT22;6376;48.182;-1.644;2024-03-23T06:07:51;12.30;90.70
12622;DHT22;6376;48.182;-1.644;2024-03-23T06:10:18;12.30;90.60
12622;DHT22;6376;48.182;-1.644;2024-03-23T06:12:45;12.30;90.80
12622;DHT22;6376;48.182;-1.644;2024-03-23T06:15:11;12.30;90.70
12622;DHT22;6376;48.182;-1.644;2024-03-23T06:17:38;12.30;90.60
12622;DHT22;6376;48.182;-1.644;2024-03-23T06:20:04;12.30;90.80
12622;DHT22;6376;48.182;-1.644;2024-03-23T06:22:31;12.30;90.70
12622;DHT22;6376;48.182;-1.644;2024-03-23T06:24:57;12.30;90.70
12622;DHT22;6376;48.182;-1.644;2024-03-23T06:27:23;12.30;90.60
12622;DHT22;6376;48.182;-1.644;2024-03-23T06:29:48;12.30;90.60
12622;DHT22;6376;48.182;-1.644;2024-03-23T06:32:14;12.30;90.30
12622;DHT22;6376;48.182;-1.644;2024-03-23T06:34:43;12.30;90.60
12622;DHT22;6376;48.182;-1.644;2024-03-23T06:37:09;12.30;90.70
12622;DHT22;6376;48.182;-1.644;2024-03-23T06:39:38;12.30;90.60
12622;DHT22;6376;48.182;-1.644;2024-03-23T06:42:04;12.30;90.60
12622;DHT22;6376;48.182;-1.644;2024-03-23T06:44:30;12.30;90.40
12622;DHT22;6376;48.182;-1.644;2024-03-23T06:46:56;12.30;90.50
12622;DHT22;6376;48.182;-1.644;2024-03-23T06:49:22;12.30;90.60
12622;DHT22;6376;48.182;-1.644;2024-03-23T06:51:48;12.30;90.50
12622;DHT22;6376;48.182;-1.644;2024-03-23T06:54:14;12.30;90.20
12622;DHT22;6376;48.182;-1.644;2024-03-23T06:56:40;12.30;90.40
12622;DHT22;6376;48.182;-1.644;2024-03-23T06:59:06;12.30;90.50
12622;DHT22;6376;48.182;-1.644;2024-03-23T07:01:32;12.30;90.50
12622;DHT22;6376;48.182;-1.644;2024-03-23T07:03:57;12.20;90.20
12622;DHT22;6376;48.182;-1.644;2024-03-23T07:06:23;12.30;90.50
12622;DHT22;6376;48.182;-1.644;2024-03-23T07:08:49;12.30;90.50
12622;DHT22;6376;48.182;-1.644;2024-03-23T07:11:24;12.30;90.30
12622;DHT22;6376;48.182;-1.644;2024-03-23T07:13:51;12.30;90.30
12622;DHT22;6376;48.182;-1.644;2024-03-23T07:16:17;12.30;90.30
12622;DHT22;6376;48.182;-1.644;2024-03-23T07:18:42;12.30;90.20
12622;DHT22;6376;48.182;-1.644;2024-03-23T07:21:08;12.30;90.20
12622;DHT22;6376;48.182;-1.644;2024-03-23T07:23:34;12.30;90.20
12622;DHT22;6376;48.182;-1.644;2024-03-23T07:26:04;12.30;90.20
12622;DHT22;6376;48.182;-1.644;2024-03-23T07:28:30;12.30;90.20
12622;DHT22;6376;48.182;-1.644;2024-03-23T07:31:03;12.30;90.30
12622;DHT22;6376;48.182;-1.644;2024-03-23T07:33:29;12.30;90.10
12622;DHT22;6376;48.182;-1.644;2024-03-23T07:35:55;12.30;90.10
12622;DHT22;6376;48.182;-1.644;2024-03-23T07:38:21;12.30;90.20
12622;DHT22;6376;48.182;-1.644;2024-03-23T07:40:46;12.30;90.20
12622;DHT22;6376;48.182;-1.644;2024-03-23T07:43:13;12.30;90.30
12622;DHT22;6376;48.182;-1.644;2024-03-23T07:45:39;12.30;90.10
12622;DHT22;6376;48.182;-1.644;2024-03-23T07:48:04;12.30;90.20
12622;DHT22;6376;48.182;-1.644;2024-03-23T07:50:30;12.30;90.30
12622;DHT22;6376;48.182;-1.644;2024-03-23T07:52:56;12.30;90.20
12622;DHT22;6376;48.182;-1.644;2024-03-23T07:55:21;12.30;90.20
12622;DHT22;6376;48.182;-1.644;2024-03-23T07:57:47;12.30;90.20
12622;DHT22;6376;48.182;-1.644;2024-03-23T08:00:13;12.30;89.90
12622;DHT22;6376;48.182;-1.644;2024-03-23T08:02:39;12.40;90.20
12622;DHT22;6376;48.182;-1.644;2024-03-23T08:05:05;12.40;90.10
12622;DHT22;6376;48.182;-1.644;2024-03-23T08:07:31;12.40;90.20
12622;DHT22;6376;48.182;-1.644;2024-03-23T08:09:56;12.60;89.60
12622;DHT22;6376;48.182;-1.644;2024-03-23T08:12:24;12.60;89.20
12622;DHT22;6376;48.182;-1.644;2024-03-23T08:14:50;12.70;88.90
12622;DHT22;6376;48.182;-1.644;2024-03-23T08:17:15;12.70;89.20
12622;DHT22;6376;48.182;-1.644;2024-03-23T08:19:41;12.80;88.80
12622;DHT22;6376;48.182;-1.644;2024-03-23T08:22:06;13.10;87.60
12622;DHT22;6376;48.182;-1.644;2024-03-23T08:24:34;13.40;86.10
12622;DHT22;6376;48.182;-1.644;2024-03-23T08:26:59;13.70;84.80
12622;DHT22;6376;48.182;-1.644;2024-03-23T08:29:25;13.80;84.00
12622;DHT22;6376;48.182;-1.644;2024-03-23T08:31:50;14.10;82.90
12622;DHT22;6376;48.182;-1.644;2024-03-23T08:34:16;14.30;81.70
12622;DHT22;6376;48.182;-1.644;2024-03-23T08:36:42;14.50;80.40
12622;DHT22;6376;48.182;-1.644;2024-03-23T08:39:07;14.80;78.90
12622;DHT22;6376;48.182;-1.644;2024-03-23T08:41:33;15.10;77.80
12622;DHT22;6376;48.182;-1.644;2024-03-23T08:43:58;15.40;76.70
12622;DHT22;6376;48.182;-1.644;2024-03-23T08:46:24;15.60;75.00
12622;DHT22;6376;48.182;-1.644;2024-03-23T08:48:50;15.90;73.80
12622;DHT22;6376;48.182;-1.644;2024-03-23T08:51:17;16.00;72.80
12622;DHT22;6376;48.182;-1.644;2024-03-23T08:53:43;16.30;71.30
12622;DHT22;6376;48.182;-1.644;2024-03-23T08:56:09;16.60;69.90
12622;DHT22;6376;48.182;-1.644;2024-03-23T08:58:36;16.90;68.90
12622;DHT22;6376;48.182;-1.644;2024-03-23T09:01:12;17.10;67.90
12622;DHT22;6376;48.182;-1.644;2024-03-23T09:03:38;17.20;67.20
12622;DHT22;6376;48.182;-1.644;2024-03-23T09:06:14;17.40;66.90
12622;DHT22;6376;48.182;-1.644;2024-03-23T09:08:40;17.40;66.70
12622;DHT22;6376;48.182;-1.644;2024-03-23T09:11:07;17.50;66.40
12622;DHT22;6376;48.182;-1.644;2024-03-23T09:13:34;17.60;66.30
12622;DHT22;6376;48.182;-1.644;2024-03-23T09:16:00;17.60;66.70
12622;DHT22;6376;48.182;-1.644;2024-03-23T09:18:26;17.60;66.30
12622;DHT22;6376;48.182;-1.644;2024-03-23T09:20:51;17.50;67.00
12622;DHT22;6376;48.182;-1.644;2024-03-23T09:23:19;17.10;67.90
12622;DHT22;6376;48.182;-1.644;2024-03-23T09:25:44;17.00;68.80
12622;DHT22;6376;48.182;-1.644;2024-03-23T09:28:11;17.00;69.20
12622;DHT22;6376;48.182;-1.644;2024-03-23T09:30:36;17.00;69.70
12622;DHT22;6376;48.182;-1.644;2024-03-23T09:33:12;16.80;70.50
12622;DHT22;6376;48.182;-1.644;2024-03-23T09:35:42;16.60;71.30
12622;DHT22;6376;48.182;-1.644;2024-03-23T09:38:08;16.40;72.20
12622;DHT22;6376;48.182;-1.644;2024-03-23T09:40:44;16.20;72.80
12622;DHT22;6376;48.182;-1.644;2024-03-23T09:43:11;16.00;73.60
12622;DHT22;6376;48.182;-1.644;2024-03-23T09:45:40;15.70;74.30
12622;DHT22;6376;48.182;-1.644;2024-03-23T09:48:09;15.60;74.70
12622;DHT22;6376;48.182;-1.644;2024-03-23T09:50:39;15.60;75.20
12622;DHT22;6376;48.182;-1.644;2024-03-23T09:53:06;15.50;75.40
12622;DHT22;6376;48.182;-1.644;2024-03-23T09:55:32;15.50;75.70
12622;DHT22;6376;48.182;-1.644;2024-03-23T09:57:59;15.40;75.90
12622;DHT22;6376;48.182;-1.644;2024-03-23T10:00:25;15.40;75.90
12622;DHT22;6376;48.182;-1.644;2024-03-23T10:02:51;15.40;76.00
12622;DHT22;6376;48.182;-1.644;2024-03-23T10:05:23;15.40;76.10
12622;DHT22;6376;48.182;-1.644;2024-03-23T10:07:50;15.40;76.30
12622;DHT22;6376;48.182;-1.644;2024-03-23T10:10:16;15.40;76.00
12622;DHT22;6376;48.182;-1.644;2024-03-23T10:12:49;15.40;76.00
12622;DHT22;6376;48.182;-1.644;2024-03-23T10:15:25;15.40;76.50
12622;DHT22;6376;48.182;-1.644;2024-03-23T10:17:51;15.40;76.20
12622;DHT22;6376;48.182;-1.644;2024-03-23T10:20:21;15.40;76.50
12622;DHT22;6376;48.182;-1.644;2024-03-23T10:22:48;15.20;76.60
12622;DHT22;6376;48.182;-1.644;2024-03-23T10:25:15;15.00;77.30
12622;DHT22;6376;48.182;-1.644;2024-03-23T10:27:41;14.80;78.60
12622;DHT22;6376;48.182;-1.644;2024-03-23T10:30:10;14.70;79.30
12622;DHT22;6376;48.182;-1.644;2024-03-23T10:32:37;14.80;79.00
12622;DHT22;6376;48.182;-1.644;2024-03-23T10:35:18;15.00;78.10
12622;DHT22;6376;48.182;-1.644;2024-03-23T10:37:45;15.00;77.80
12622;DHT22;6376;48.182;-1.644;2024-03-23T10:40:12;14.90;78.40
12622;DHT22;6376;48.182;-1.644;2024-03-23T10:42:39;14.80;79.00
12622;DHT22;6376;48.182;-1.644;2024-03-23T10:45:05;14.70;79.40
12622;DHT22;6376;48.182;-1.644;2024-03-23T10:47:32;14.80;79.30
12622;DHT22;6376;48.182;-1.644;2024-03-23T10:49:58;14.90;78.90
12622;DHT22;6376;48.182;-1.644;2024-03-23T10:52:24;14.90;78.80
12622;DHT22;6376;48.182;-1.644;2024-03-23T10:54:51;14.80;79.20
12622;DHT22;6376;48.182;-1.644;2024-03-23T10:57:40;14.60;79.50
12622;DHT22;6376;48.182;-1.644;2024-03-23T11:00:07;14.60;80.00
12622;DHT22;6376;48.182;-1.644;2024-03-23T11:02:34;14.50;80.20
12622;DHT22;6376;48.182;-1.644;2024-03-23T11:04:59;14.70;79.80
12622;DHT22;6376;48.182;-1.644;2024-03-23T11:07:31;15.00;78.70
12622;DHT22;6376;48.182;-1.644;2024-03-23T11:09:57;15.00;78.10
12622;DHT22;6376;48.182;-1.644;2024-03-23T11:17:23;14.90;78.70
12622;DHT22;6376;48.182;-1.644;2024-03-23T11:25:23;14.70;79.70
12622;DHT22;6376;48.182;-1.644;2024-03-23T11:28:11;14.60;80.20
12622;DHT22;6376;48.182;-1.644;2024-03-23T11:30:37;14.50;80.30
12622;DHT22;6376;48.182;-1.644;2024-03-23T11:33:04;14.50;80.30
12622;DHT22;6376;48.182;-1.644;2024-03-23T11:35:40;14.40;80.60
12622;DHT22;6376;48.182;-1.644;2024-03-23T11:38:16;14.40;80.70
12622;DHT22;6376;48.182;-1.644;2024-03-23T11:40:48;14.40;81.00
12622;DHT22;6376;48.182;-1.644;2024-03-23T11:43:18;14.30;81.10
12622;DHT22;6376;48.182;-1.644;2024-03-23T11:45:45;14.30;81.00
12622;DHT22;6376;48.182;-1.644;2024-03-23T11:48:13;14.40;81.10
12622;DHT22;6376;48.182;-1.644;2024-03-23T11:50:43;14.40;80.80
12622;DHT22;6376;48.182;-1.644;2024-03-23T11:53:13;14.50;80.70
12622;DHT22;6376;48.182;-1.644;2024-03-23T11:55:59;14.50;80.80
12622;DHT22;6376;48.182;-1.644;2024-03-23T11:58:27;14.50;80.80
12622;DHT22;6376;48.182;-1.644;2024-03-23T12:01:02;14.50;80.70
12622;DHT22;6376;48.182;-1.644;2024-03-23T12:03:29;14.40;81.00
12622;DHT22;6376;48.182;-1.644;2024-03-23T12:05:57;14.40;81.30
12622;DHT22;6376;48.182;-1.644;2024-03-23T12:11:12;14.30;81.60
12622;DHT22;6376;48.182;-1.644;2024-03-23T12:13:39;14.20;81.70
12622;DHT22;6376;48.182;-1.644;2024-03-23T12:16:17;14.20;81.90
12622;DHT22;6376;48.182;-1.644;2024-03-23T12:18:48;14.20;81.90
12622;DHT22;6376;48.182;-1.644;2024-03-23T12:21:14;14.10;81.00
12622;DHT22;6376;48.182;-1.644;2024-03-23T12:23:40;14.00;80.40
12622;DHT22;6376;48.182;-1.644;2024-03-23T12:26:07;13.80;80.40
12622;DHT22;6376;48.182;-1.644;2024-03-23T12:28:33;13.70;80.90
12622;DHT22;6376;48.182;-1.644;2024-03-23T12:30:59;13.50;81.20
12622;DHT22;6376;48.182;-1.644;2024-03-23T12:33:24;13.40;82.10
12622;DHT22;6376;48.182;-1.644;2024-03-23T12:35:51;13.40;83.10
12622;DHT22;6376;48.182;-1.644;2024-03-23T12:38:16;13.40;85.30
12622;DHT22;6376;48.182;-1.644;2024-03-23T12:40:46;13.50;84.60
12622;DHT22;6376;48.182;-1.644;2024-03-23T12:43:13;13.60;84.70
12622;DHT22;6376;48.182;-1.644;2024-03-23T12:45:39;13.60;81.70
12622;DHT22;6376;48.182;-1.644;2024-03-23T12:48:05;13.50;81.40
12622;DHT22;6376;48.182;-1.644;2024-03-23T12:50:30;14.10;82.10
12622;DHT22;6376;48.182;-1.644;2024-03-23T12:52:56;13.40;82.40
12622;DHT22;6376;48.182;-1.644;2024-03-23T12:55:21;13.40;83.10
12622;DHT22;6376;48.182;-1.644;2024-03-23T12:57:47;13.60;83.40
12622;DHT22;6376;48.182;-1.644;2024-03-23T13:00:13;13.80;84.10
12622;DHT22;6376;48.182;-1.644;2024-03-23T13:02:41;13.90;80.80
12622;DHT22;6376;48.182;-1.644;2024-03-23T13:05:07;14.00;82.40
12622;DHT22;6376;48.182;-1.644;2024-03-23T13:07:34;14.00;79.90
12622;DHT22;6376;48.182;-1.644;2024-03-23T13:10:00;14.00;78.50
12622;DHT22;6376;48.182;-1.644;2024-03-23T13:12:27;14.00;78.40
12622;DHT22;6376;48.182;-1.644;2024-03-23T13:14:53;14.00;80.30
12622;DHT22;6376;48.182;-1.644;2024-03-23T13:17:19;14.00;78.80
12622;DHT22;6376;48.182;-1.644;2024-03-23T13:19:44;14.00;77.50
12622;DHT22;6376;48.182;-1.644;2024-03-23T13:22:10;14.00;79.40
12622;DHT22;6376;48.182;-1.644;2024-03-23T13:24:37;14.00;80.70
12622;DHT22;6376;48.182;-1.644;2024-03-23T13:27:15;14.10;81.70
12622;DHT22;6376;48.182;-1.644;2024-03-23T13:29:43;14.30;84.00
12622;DHT22;6376;48.182;-1.644;2024-03-23T13:32:12;14.40;83.00
12622;DHT22;6376;48.182;-1.644;2024-03-23T13:34:39;14.60;84.40
12622;DHT22;6376;48.182;-1.644;2024-03-23T13:37:06;14.80;84.20
12622;DHT22;6376;48.182;-1.644;2024-03-23T13:39:33;15.00;84.20
12622;DHT22;6376;48.182;-1.644;2024-03-23T13:41:59;15.00;83.80
12622;DHT22;6376;48.182;-1.644;2024-03-23T13:44:25;15.00;84.70
12622;DHT22;6376;48.182;-1.644;2024-03-23T13:46:51;15.00;85.70
12622;DHT22;6376;48.182;-1.644;2024-03-23T13:49:30;14.90;86.50
12622;DHT22;6376;48.182;-1.644;2024-03-23T13:51:59;15.00;86.60
12622;DHT22;6376;48.182;-1.644;2024-03-23T13:54:26;15.30;85.90
12622;DHT22;6376;48.182;-1.644;2024-03-23T13:56:55;15.50;85.50
12622;DHT22;6376;48.182;-1.644;2024-03-23T13:59:21;15.30;85.40
12622;DHT22;6376;48.182;-1.644;2024-03-23T14:01:48;15.20;86.20
12622;DHT22;6376;48.182;-1.644;2024-03-23T14:04:14;15.30;86.80
12622;DHT22;6376;48.182;-1.644;2024-03-23T14:06:43;15.30;87.00
12622;DHT22;6376;48.182;-1.644;2024-03-23T14:09:11;15.40;86.60
12622;DHT22;6376;48.182;-1.644;2024-03-23T14:11:37;15.40;87.50
12622;DHT22;6376;48.182;-1.644;2024-03-23T14:14:03;15.50;87.30
12622;DHT22;6376;48.182;-1.644;2024-03-23T14:16:32;15.60;87.30
12622;DHT22;6376;48.182;-1.644;2024-03-23T14:18:59;15.60;87.70
12622;DHT22;6376;48.182;-1.644;2024-03-23T14:21:25;15.60;87.60
12622;DHT22;6376;48.182;-1.644;2024-03-23T14:23:51;15.70;87.30
12622;DHT22;6376;48.182;-1.644;2024-03-23T14:26:17;15.70;87.50
12622;DHT22;6376;48.182;-1.644;2024-03-23T14:28:42;15.70;87.10
12622;DHT22;6376;48.182;-1.644;2024-03-23T14:31:08;15.70;87.30
12622;DHT22;6376;48.182;-1.644;2024-03-23T14:33:40;15.80;87.50
12622;DHT22;6376;48.182;-1.644;2024-03-23T14:36:16;15.70;87.20
12622;DHT22;6376;48.182;-1.644;2024-03-23T14:38:49;15.80;87.20
12622;DHT22;6376;48.182;-1.644;2024-03-23T14:41:15;15.70;87.00
12622;DHT22;6376;48.182;-1.644;2024-03-23T14:43:42;15.70;86.90
12622;DHT22;6376;48.182;-1.644;2024-03-23T14:46:14;15.80;86.90
12622;DHT22;6376;48.182;-1.644;2024-03-23T14:48:44;16.00;86.70
12622;DHT22;6376;48.182;-1.644;2024-03-23T14:51:11;16.00;86.60
12622;DHT22;6376;48.182;-1.644;2024-03-23T14:53:39;16.10;85.90
12622;DHT22;6376;48.182;-1.644;2024-03-23T14:56:08;16.10;86.30
12622;DHT22;6376;48.182;-1.644;2024-03-23T14:58:37;16.20;87.10
12622;DHT22;6376;48.182;-1.644;2024-03-23T15:01:03;16.30;86.80
12622;DHT22;6376;48.182;-1.644;2024-03-23T15:03:30;16.30;87.70
12622;DHT22;6376;48.182;-1.644;2024-03-23T15:05:56;16.40;87.90
12622;DHT22;6376;48.182;-1.644;2024-03-23T15:08:23;16.40;88.10
12622;DHT22;6376;48.182;-1.644;2024-03-23T15:10:49;16.40;88.80
12622;DHT22;6376;48.182;-1.644;2024-03-23T15:13:15;16.40;89.10
12622;DHT22;6376;48.182;-1.644;2024-03-23T15:15:41;16.40;89.40
12622;DHT22;6376;48.182;-1.644;2024-03-23T15:18:11;16.30;89.90
12622;DHT22;6376;48.182;-1.644;2024-03-23T15:20:38;16.40;90.00
12622;DHT22;6376;48.182;-1.644;2024-03-23T15:23:04;16.40;90.20
12622;DHT22;6376;48.182;-1.644;2024-03-23T15:25:30;16.30;90.50
12622;DHT22;6376;48.182;-1.644;2024-03-23T15:27:56;16.40;90.60
12622;DHT22;6376;48.182;-1.644;2024-03-23T15:30:23;16.40;90.80
12622;DHT22;6376;48.182;-1.644;2024-03-23T15:32:49;16.30;90.60
12622;DHT22;6376;48.182;-1.644;2024-03-23T15:35:15;16.30;90.90
12622;DHT22;6376;48.182;-1.644;2024-03-23T15:37:40;16.20;91.20
12622;DHT22;6376;48.182;-1.644;2024-03-23T15:40:10;16.30;91.00
12622;DHT22;6376;48.182;-1.644;2024-03-23T15:42:38;16.30;91.20
12622;DHT22;6376;48.182;-1.644;2024-03-23T15:45:06;16.40;90.90
12622;DHT22;6376;48.182;-1.644;2024-03-23T15:47:34;16.40;90.90
12622;DHT22;6376;48.182;-1.644;2024-03-23T15:50:00;16.40;91.10
12622;DHT22;6376;48.182;-1.644;2024-03-23T15:52:25;16.40;91.00
12622;DHT22;6376;48.182;-1.644;2024-03-23T15:54:51;16.40;91.10
12622;DHT22;6376;48.182;-1.644;2024-03-23T15:57:18;16.40;91.20
12622;DHT22;6376;48.182;-1.644;2024-03-23T15:59:43;16.50;91.40
12622;DHT22;6376;48.182;-1.644;2024-03-23T16:02:09;16.40;91.60
12622;DHT22;6376;48.182;-1.644;2024-03-23T16:04:35;16.40;91.70
12622;DHT22;6376;48.182;-1.644;2024-03-23T16:07:01;16.30;91.70
12622;DHT22;6376;48.182;-1.644;2024-03-23T16:09:26;16.40;92.30
12622;DHT22;6376;48.182;-1.644;2024-03-23T16:11:54;16.40;91.90
12622;DHT22;6376;48.182;-1.644;2024-03-23T16:14:19;16.50;91.90
12622;DHT22;6376;48.182;-1.644;2024-03-23T16:16:45;16.40;92.00
12622;DHT22;6376;48.182;-1.644;2024-03-23T16:19:11;16.40;92.00
12622;DHT22;6376;48.182;-1.644;2024-03-23T16:21:37;16.40;92.00
12622;DHT22;6376;48.182;-1.644;2024-03-23T16:24:03;16.40;92.00
12622;DHT22;6376;48.182;-1.644;2024-03-23T16:26:28;16.40;92.20
12622;DHT22;6376;48.182;-1.644;2024-03-23T16:28:54;16.40;92.20
12622;DHT22;6376;48.182;-1.644;2024-03-23T16:31:19;16.20;92.20
12622;DHT22;6376;48.182;-1.644;2024-03-23T16:33:45;16.20;92.40
12622;DHT22;6376;48.182;-1.644;2024-03-23T16:36:11;16.10;92.30